Time;durP1;ratioP1;P1;durP2;ratioP2;P2;SDS_P1;SDS_P2;PMS_P1;PMS_P2;Temp;Humidity;BMP_temperature;BMP_pressure;BME280_temperature;BME280_humidity;BME280_pressure;Samples;Min_cycle;Max_cycle;Signal;HPM_P1;HPM_P2
2022/04/06 00:00:00;;;;;;;18.98;9.38;;;11.40;99.90;;;;;;5070784;28;20490;-72
2022/04/06 00:02:26;;;;;;;14.77;8.70;;;11.40;99.90;;;;;;5070741;28;20112;-73
2022/04/06 00:04:52;;;;;;;13.13;8.73;;;11.40;99.90;;;;;;5069717;28;20074;-73
2022/04/06 00:07:18;;;;;;;16.33;9.02;;;11.40;99.90;;;;;;5071174;28;20081;-73
2022/04/06 00:09:44;;;;;;;15.23;9.75;;;11.40;99.90;;;;;;5070694;28;20607;-72
2022/04/06 00:12:10;;;;;;;16.55;8.80;;;11.40;99.90;;;;;;5070911;28;20131;-73
2022/04/06 00:14:36;;;;;;;13.77;8.90;;;11.30;99.90;;;;;;5070888;28;20089;-73
2022/04/06 00:17:05;;;;;;;17.50;8.90;;;11.30;99.90;;;;;;5070802;28;20025;-73
2022/04/06 00:19:32;;;;;;;22.75;9.75;;;11.30;99.90;;;;;;5071149;28;20032;-72
2022/04/06 00:21:58;;;;;;;15.97;8.90;;;11.30;99.90;;;;;;5069565;28;20510;-72
2022/04/06 00:24:24;;;;;;;14.98;8.95;;;11.30;99.90;;;;;;5070747;28;20058;-73
2022/04/06 00:26:49;;;;;;;13.88;8.35;;;11.30;99.90;;;;;;5070725;28;20059;-72
2022/04/06 00:29:15;;;;;;;13.13;7.93;;;11.30;99.90;;;;;;5070657;28;20343;-72
2022/04/06 00:31:40;;;;;;;14.77;8.90;;;11.30;99.90;;;;;;5070669;28;20047;-73
2022/04/06 00:34:06;;;;;;;12.98;7.13;;;11.20;99.90;;;;;;5073848;28;20020;-73
2022/04/06 00:36:32;;;;;;;17.20;8.80;;;11.10;99.90;;;;;;5074594;28;20040;-73
2022/04/06 00:38:57;;;;;;;12.98;7.22;;;11.10;99.90;;;;;;5073468;28;20032;-73
2022/04/06 00:41:23;;;;;;;15.13;8.18;;;11.10;99.90;;;;;;5074600;28;20025;-73
2022/04/06 00:44:08;;;;;;;18.75;7.10;;;11.10;99.90;;;;;;5074105;28;20372;-72
2022/04/06 00:46:34;;;;;;;14.88;6.88;;;11.00;99.90;;;;;;5074598;28;20045;-72
2022/04/06 00:48:59;;;;;;;17.75;7.93;;;11.10;99.90;;;;;;5074289;28;20051;-71
2022/04/06 00:51:25;;;;;;;17.75;7.05;;;11.00;99.90;;;;;;5074215;28;20043;-72
2022/04/06 00:53:50;;;;;;;15.70;6.68;;;11.00;99.90;;;;;;5074244;28;20123;-72
2022/04/06 00:56:17;;;;;;;17.10;7.57;;;11.10;99.90;;;;;;5074062;28;20020;-71
2022/04/06 00:58:43;;;;;;;10.23;6.38;;;11.10;99.90;;;;;;5073552;28;20075;-73
2022/04/06 01:01:08;;;;;;;11.90;5.88;;;11.10;99.90;;;;;;5074575;28;20434;-72
2022/04/06 01:03:34;;;;;;;14.50;6.28;;;11.10;99.90;;;;;;5074180;28;20040;-73
2022/04/06 01:06:00;;;;;;;13.45;6.15;;;11.10;99.90;;;;;;5074091;28;20028;-72
2022/04/06 01:08:25;;;;;;;12.13;5.80;;;11.10;99.90;;;;;;5074015;28;20466;-73
2022/04/06 01:10:51;;;;;;;10.57;6.60;;;11.10;99.90;;;;;;5073940;28;20028;-73
2022/04/06 01:13:17;;;;;;;17.50;7.68;;;11.10;99.90;;;;;;5074319;28;20055;-73
2022/04/06 01:15:43;;;;;;;10.10;6.38;;;11.20;99.90;;;;;;5074013;28;20059;-73
2022/04/06 01:18:09;;;;;;;14.10;7.43;;;11.20;99.90;;;;;;5073879;28;20485;-73
2022/04/06 01:20:35;;;;;;;19.08;8.05;;;11.20;99.90;;;;;;5073866;28;20039;-72
2022/04/06 01:23:04;;;;;;;23.27;9.07;;;11.20;99.90;;;;;;5073605;28;20044;-71
2022/04/06 01:25:30;;;;;;;20.98;9.95;;;11.20;99.90;;;;;;5074033;28;20032;-73
2022/04/06 01:27:56;;;;;;;16.48;9.25;;;11.20;99.90;;;;;;5073542;28;20036;-72
2022/04/06 01:30:21;;;;;;;15.35;9.18;;;11.20;99.90;;;;;;5072294;28;20047;-72
2022/04/06 01:32:47;;;;;;;17.90;8.52;;;11.10;99.90;;;;;;5073484;28;20044;-72
2022/04/06 01:35:13;;;;;;;21.40;9.85;;;11.30;99.90;;;;;;5073344;28;20358;-73
2022/04/06 01:37:38;;;;;;;22.05;11.32;;;11.20;99.90;;;;;;5073462;28;20033;-73
2022/04/06 01:40:05;;;;;;;17.98;10.43;;;11.20;99.90;;;;;;5073964;28;20395;-73
2022/04/06 01:42:31;;;;;;;18.00;10.10;;;11.20;99.90;;;;;;5073388;28;20028;-73
2022/04/06 01:44:58;;;;;;;23.00;10.60;;;11.20;99.90;;;;;;5072033;28;20032;-72
2022/04/06 01:47:23;;;;;;;22.58;11.63;;;11.30;99.90;;;;;;5073065;28;20028;-73
2022/04/06 01:52:34;;;;;;;24.58;11.85;;;11.30;99.90;;;;;;5074056;28;20040;-73
2022/04/06 01:55:11;;;;;;;26.60;12.13;;;11.30;99.90;;;;;;5073104;28;20028;-73
2022/04/06 01:57:37;;;;;;;31.55;14.48;;;11.30;99.90;;;;;;5073087;28;20052;-73
2022/04/06 02:00:15;;;;;;;31.38;14.63;;;11.30;99.90;;;;;;5071954;28;20028;-72
2022/04/06 02:02:43;;;;;;;37.20;14.77;;;11.20;99.90;;;;;;5072920;28;20036;-72
2022/04/06 02:05:11;;;;;;;34.33;14.00;;;11.30;99.90;;;;;;5072977;28;20024;-72
2022/04/06 02:07:37;;;;;;;;;;;11.30;99.90;;;;;;5073802;28;20016;-72
2022/04/06 02:10:03;;;;;;;31.50;14.75;;;11.30;99.90;;;;;;5072965;28;20070;-72
2022/04/06 02:12:29;;;;;;;34.33;15.25;;;11.40;99.90;;;;;;5072825;28;20037;-72
2022/04/06 02:14:55;;;;;;;33.67;15.02;;;11.40;99.90;;;;;;5072776;28;20024;-74
2022/04/06 02:17:21;;;;;;;29.27;15.38;;;11.40;99.90;;;;;;5072646;28;20039;-72
2022/04/06 02:19:47;;;;;;;35.78;16.90;;;11.40;99.90;;;;;;5072622;28;20028;-71
2022/04/06 02:22:13;;;;;;;30.67;16.17;;;11.30;99.90;;;;;;5072010;28;20350;-73
2022/04/06 02:24:38;;;;;;;34.85;15.95;;;11.30;99.90;;;;;;5072928;28;20036;-73
2022/04/06 02:27:08;;;;;;;31.60;15.10;;;11.40;99.90;;;;;;5072804;28;20029;-73
2022/04/06 02:29:35;;;;;;;28.33;14.48;;;11.40;99.90;;;;;;5072546;28;20040;-73
2022/04/06 02:32:00;;;;;;;28.50;15.50;;;11.40;99.90;;;;;;5072454;28;20067;-70
2022/04/06 02:34:26;;;;;;;37.22;15.90;;;11.40;99.90;;;;;;5072845;28;20079;-71
2022/04/06 02:36:51;;;;;;;29.55;15.25;;;11.40;99.90;;;;;;5071492;28;20036;-71
2022/04/06 02:39:17;;;;;;;28.50;15.20;;;11.40;99.90;;;;;;5072400;28;20090;-71
2022/04/06 02:41:43;;;;;;;33.33;15.98;;;11.40;99.90;;;;;;5071379;28;20505;-72
2022/04/06 02:44:08;;;;;;;37.75;16.55;;;11.40;99.90;;;;;;5072385;28;20029;-71
2022/04/06 02:46:34;;;;;;;34.30;16.85;;;11.40;99.90;;;;;;5072528;28;20041;-72
2022/04/06 02:48:59;;;;;;;31.65;15.88;;;11.30;99.90;;;;;;5071967;28;20695;-74
2022/04/06 02:51:25;;;;;;;33.70;16.20;;;11.40;99.90;;;;;;5072100;28;20032;-73
2022/04/06 02:53:51;;;;;;;33.22;17.40;;;11.40;99.90;;;;;;5070943;28;20024;-73
2022/04/06 02:56:16;;;;;;;30.00;15.27;;;11.30;99.90;;;;;;5070595;28;20074;-73
2022/04/06 02:58:42;;;;;;;34.22;16.35;;;11.40;99.90;;;;;;5071993;28;20090;-73
2022/04/06 03:01:07;;;;;;;30.80;17.13;;;11.30;99.90;;;;;;5072282;28;20050;-72
2022/04/06 03:03:33;;;;;;;29.80;16.38;;;11.30;99.90;;;;;;5071868;28;20021;-70
2022/04/06 03:05:59;;;;;;;30.58;16.38;;;11.30;99.90;;;;;;5071787;28;20163;-72
2022/04/06 03:08:24;;;;;;;33.30;15.85;;;11.30;99.90;;;;;;5071821;28;20086;-73
2022/04/06 03:10:50;;;;;;;37.13;16.55;;;11.30;99.90;;;;;;5071547;28;20025;-74
2022/04/06 03:13:15;;;;;;;33.05;16.13;;;11.30;99.90;;;;;;5072243;28;20032;-73
2022/04/06 03:15:42;;;;;;;31.55;16.30;;;11.40;99.90;;;;;;5071714;28;20035;-72
2022/04/06 03:18:07;;;;;;;39.58;17.30;;;11.40;99.90;;;;;;5071653;28;20031;-72
2022/04/06 03:20:33;;;;;;;29.95;17.25;;;11.30;99.90;;;;;;5071476;28;20370;-72
2022/04/06 03:22:59;;;;;;;30.73;16.85;;;11.40;99.90;;;;;;5071352;28;20116;-72
2022/04/06 03:25:24;;;;;;;36.65;16.70;;;11.40;99.90;;;;;;5071882;28;20024;-73
2022/04/06 03:27:50;;;;;;;33.90;16.98;;;11.40;99.90;;;;;;5071346;28;20361;-72
2022/04/06 03:30:16;;;;;;;35.28;17.70;;;11.40;99.90;;;;;;5071389;28;20432;-72
2022/04/06 03:32:42;;;;;;;35.80;16.80;;;11.30;99.90;;;;;;5071244;28;20032;-72
2022/04/06 03:35:08;;;;;;;32.80;16.77;;;11.30;99.90;;;;;;5071235;28;20096;-73
2022/04/06 03:37:34;;;;;;;35.63;17.38;;;11.30;99.90;;;;;;5071695;28;20028;-72
2022/04/06 03:40:01;;;;;;;34.25;16.83;;;11.40;99.90;;;;;;5071334;28;20522;-73
2022/04/06 03:42:27;;;;;;;30.92;17.02;;;11.40;99.90;;;;;;5071193;28;20111;-72
2022/04/06 03:44:52;;;;;;;33.00;18.30;;;11.40;99.90;;;;;;5071070;28;20136;-73
2022/04/06 03:47:18;;;;;;;37.90;17.38;;;11.30;99.90;;;;;;5070725;28;20036;-73
2022/04/06 03:49:43;;;;;;;37.75;17.55;;;11.40;99.90;;;;;;5070981;28;20434;-73
2022/04/06 03:52:10;;;;;;;36.17;18.63;;;11.40;99.90;;;;;;5070488;28;20088;-73
2022/04/06 03:54:36;;;;;;;41.00;19.45;;;11.40;99.90;;;;;;5070979;28;20032;-73
2022/04/06 03:57:02;;;;;;;37.45;17.75;;;11.40;99.90;;;;;;5069772;28;20446;-72
2022/04/06 03:59:27;;;;;;;38.30;19.10;;;11.40;99.90;;;;;;5070973;28;20494;-73
2022/04/06 04:01:53;;;;;;;38.47;20.42;;;11.40;99.90;;;;;;5071089;28;20078;-72
2022/04/06 04:04:18;;;;;;;41.78;19.85;;;11.40;99.90;;;;;;5070276;28;20024;-73
2022/04/06 04:06:44;;;;;;;40.38;20.40;;;11.40;99.90;;;;;;5070868;28;20028;-73
2022/04/06 04:09:10;;;;;;;36.85;19.60;;;11.40;99.90;;;;;;5070145;28;20101;-73
2022/04/06 04:11:35;;;;;;;39.75;21.73;;;11.40;99.90;;;;;;5070950;28;20467;-73
2022/04/06 04:14:01;;;;;;;41.30;20.48;;;11.40;99.90;;;;;;5070858;28;20759;-73
2022/04/06 04:16:27;;;;;;;46.50;21.33;;;11.40;99.90;;;;;;5071129;28;20150;-72
2022/04/06 04:18:52;;;;;;;43.85;22.35;;;11.40;99.90;;;;;;5070609;28;20029;-73
2022/04/06 04:21:34;;;;;;;37.53;20.77;;;11.40;99.90;;;;;;5070820;28;20104;-73
2022/04/06 04:24:04;;;;;;;37.03;22.33;;;11.40;99.90;;;;;;5070729;28;20033;-71
2022/04/06 04:26:31;;;;;;;40.13;21.67;;;11.40;99.90;;;;;;5070970;28;20339;-72
2022/04/06 04:28:56;;;;;;;39.80;22.00;;;11.30;99.90;;;;;;5069434;28;20468;-73
2022/04/06 04:31:22;;;;;;;46.58;21.75;;;11.30;99.90;;;;;;5069892;28;20022;-73
2022/04/06 04:33:48;;;;;;;51.15;21.88;;;11.30;99.90;;;;;;5070599;28;20059;-74
2022/04/06 04:36:14;;;;;;;43.13;22.15;;;11.30;99.90;;;;;;5070544;28;20051;-72
2022/04/06 04:38:39;;;;;;;47.40;23.60;;;11.30;99.90;;;;;;5070426;28;20034;-73
2022/04/06 04:41:06;;;;;;;38.00;21.70;;;11.40;99.90;;;;;;5070564;28;20032;-73
2022/04/06 04:43:32;;;;;;;45.85;20.60;;;11.30;99.90;;;;;;5071042;28;20039;-73
2022/04/06 04:45:58;;;;;;;44.75;21.40;;;11.30;99.90;;;;;;5070310;28;20044;-73
2022/04/06 04:48:24;;;;;;;35.80;22.05;;;11.30;99.90;;;;;;5070420;28;20056;-71
2022/04/06 04:50:49;;;;;;;39.00;21.40;;;11.30;99.80;;;;;;5070377;28;20135;-73
2022/04/06 04:53:15;;;;;;;42.10;22.13;;;11.30;99.80;;;;;;5070489;28;20056;-72
2022/04/06 04:55:41;;;;;;;37.03;21.00;;;11.30;99.70;;;;;;5069386;28;20025;-73
2022/04/06 04:58:07;;;;;;;42.28;21.90;;;11.30;99.70;;;;;;5070799;28;20029;-73
2022/04/06 05:00:33;;;;;;;40.85;22.15;;;11.30;99.60;;;;;;5070355;28;20382;-73
2022/04/06 05:02:59;;;;;;;38.35;21.05;;;11.30;99.70;;;;;;5070183;28;20134;-72
2022/04/06 05:05:24;;;;;;;46.50;22.50;;;11.30;99.70;;;;;;5070190;28;20025;-73
2022/04/06 05:07:50;;;;;;;35.33;21.25;;;11.30;99.50;;;;;;5069220;28;20031;-73
2022/04/06 05:10:16;;;;;;;34.53;21.77;;;11.30;99.50;;;;;;5070470;28;20044;-72
2022/04/06 05:12:45;;;;;;;37.22;19.80;;;11.40;99.50;;;;;;5070044;28;20025;-72
2022/04/06 05:15:12;;;;;;;37.90;21.73;;;11.40;99.40;;;;;;5068965;28;20355;-73
2022/04/06 05:17:38;;;;;;;43.10;22.67;;;11.40;99.40;;;;;;5070283;28;20454;-73
2022/04/06 05:20:06;;;;;;;41.30;22.40;;;11.40;99.20;;;;;;5072438;28;20050;-73
2022/04/06 05:22:32;;;;;;;;;;;11.30;99.20;;;;;;5074683;28;20442;-73
2022/04/06 05:24:57;;;;;;;42.13;21.85;;;11.40;99.30;;;;;;5073752;28;19958;-73
2022/04/06 05:27:23;;;;;;;39.40;21.60;;;11.40;99.30;;;;;;5073657;28;20020;-73
2022/04/06 05:29:49;;;;;;;36.30;21.63;;;11.30;99.30;;;;;;5073511;28;20055;-73
2022/04/06 05:32:14;;;;;;;35.30;20.60;;;11.40;99.40;;;;;;5073497;28;20033;-73
2022/04/06 05:34:40;;;;;;;44.38;23.30;;;11.40;99.50;;;;;;5073471;28;20413;-72
2022/04/06 05:37:05;;;;;;;42.53;24.60;;;11.30;99.90;;;;;;5054536;28;20296;-73
2022/04/06 05:39:31;;;;;;;39.13;22.73;;;11.30;99.90;;;;;;5052645;28;20516;-72
2022/04/06 05:41:56;;;;;;;40.40;23.80;;;11.20;99.90;;;;;;5053686;28;20425;-73
2022/04/06 05:44:22;;;;;;;38.38;23.77;;;11.30;99.90;;;;;;5053586;28;20021;-74
2022/04/06 05:46:47;;;;;;;44.85;25.13;;;11.30;99.90;;;;;;5053335;28;20045;-75
2022/04/06 05:49:13;;;;;;;40.15;24.90;;;11.30;99.90;;;;;;5053606;28;20459;-74
2022/04/06 05:51:39;;;;;;;48.05;25.98;;;11.20;99.90;;;;;;5053491;28;20094;-73
2022/04/06 05:54:05;;;;;;;53.88;26.52;;;11.20;99.90;;;;;;5053331;28;20082;-72
2022/04/06 05:56:31;;;;;;;41.05;24.30;;;11.30;99.90;;;;;;5053270;28;20417;-72
2022/04/06 05:58:57;;;;;;;41.25;24.00;;;11.20;99.90;;;;;;5053378;28;20040;-72
2022/04/06 06:01:23;;;;;;;44.35;23.67;;;11.40;99.90;;;;;;5054032;28;20017;-73
2022/04/06 06:03:49;;;;;;;40.63;23.67;;;11.20;99.90;;;;;;5053263;28;20037;-73
2022/04/06 06:06:15;;;;;;;41.40;22.85;;;11.20;99.90;;;;;;5053094;28;20044;-74
2022/04/06 06:08:41;;;;;;;42.15;22.58;;;11.20;99.90;;;;;;5053050;28;20033;-79
2022/04/06 06:11:07;;;;;;;45.88;23.33;;;11.20;99.90;;;;;;5053403;28;20032;-76
2022/04/06 06:13:32;;;;;;;42.00;21.35;;;11.20;99.90;;;;;;5053490;28;20048;-73
2022/04/06 06:16:00;;;;;;;36.75;21.50;;;11.20;99.90;;;;;;5052154;28;20465;-73
2022/04/06 06:18:26;;;;;;;40.80;21.15;;;11.20;99.90;;;;;;5052825;28;20421;-73
2022/04/06 06:20:51;;;;;;;41.20;21.65;;;11.20;99.90;;;;;;5052674;28;20032;-75
2022/04/06 06:23:17;;;;;;;43.03;20.55;;;11.20;99.90;;;;;;5051564;28;20025;-73
2022/04/06 06:25:43;;;;;;;36.60;20.00;;;11.20;99.90;;;;;;5052621;28;20021;-73
2022/04/06 06:28:09;;;;;;;42.05;20.67;;;11.20;99.90;;;;;;5053055;28;20482;-73
2022/04/06 06:30:35;;;;;;;37.90;20.52;;;11.30;99.90;;;;;;5051670;28;20049;-70
2022/04/06 06:33:00;;;;;;;37.20;19.90;;;11.20;99.90;;;;;;5052067;28;20049;-73
2022/04/06 06:35:26;;;;;;;42.05;19.20;;;11.30;99.90;;;;;;5052553;28;20055;-72
2022/04/06 06:37:56;;;;;;;34.75;20.67;;;11.30;99.90;;;;;;5052893;28;20056;-74
2022/04/06 06:40:24;;;;;;;39.70;21.52;;;11.30;99.90;;;;;;5052909;28;20052;-72
2022/04/06 06:42:49;;;;;;;39.55;20.02;;;11.30;99.90;;;;;;5052538;28;20041;-72
2022/04/06 06:45:15;;;;;;;35.65;19.55;;;11.30;99.90;;;;;;5052448;28;20327;-73
2022/04/06 06:47:41;;;;;;;42.10;20.00;;;11.40;99.90;;;;;;5051951;28;20369;-72
2022/04/06 06:50:11;;;;;;;36.90;19.38;;;11.40;99.90;;;;;;5052093;28;20048;-74
2022/04/06 06:52:37;;;;;;;32.00;19.30;;;11.40;99.90;;;;;;5051690;28;20505;-74
2022/04/06 06:55:05;;;;;;;35.70;19.25;;;11.40;99.90;;;;;;5052101;28;20029;-71
2022/04/06 06:57:31;;;;;;;;;;;11.40;99.90;;;;;;5052764;28;20489;-72
2022/04/06 06:59:56;;;;;;;31.27;18.20;;;11.50;99.90;;;;;;5052128;28;19951;-73
2022/04/06 07:02:22;;;;;;;34.47;17.92;;;11.50;99.90;;;;;;5051862;28;20355;-72
2022/04/06 07:04:47;;;;;;;35.83;18.40;;;11.50;99.60;;;;;;5051992;28;20047;-72
2022/04/06 07:07:13;;;;;;;38.30;18.60;;;11.50;99.60;;;;;;5051276;28;20033;-72
2022/04/06 07:09:39;;;;;;;31.27;16.95;;;11.50;99.40;;;;;;5051756;28;20037;-72
2022/04/06 07:12:05;;;;;;;34.20;18.00;;;11.50;99.40;;;;;;5051840;28;20033;-72
2022/04/06 07:14:32;;;;;;;29.30;17.35;;;11.60;99.40;;;;;;5051903;28;20374;-73
2022/04/06 07:16:58;;;;;;;28.00;16.27;;;11.60;99.00;;;;;;5051787;28;20447;-72
2022/04/06 07:19:24;;;;;;;32.40;16.92;;;11.60;98.90;;;;;;5051149;28;20048;-71
2022/04/06 07:21:50;;;;;;;28.42;16.77;;;11.60;98.90;;;;;;5051637;28;20470;-70
2022/04/06 07:24:16;;;;;;;24.33;15.95;;;11.70;98.80;;;;;;5051847;28;20040;-72
2022/04/06 07:26:42;;;;;;;31.85;16.48;;;11.70;98.60;;;;;;5050722;28;20025;-71
2022/04/06 07:29:11;;;;;;;31.35;15.05;;;11.70;98.40;;;;;;5051178;28;20035;-71
2022/04/06 07:31:37;;;;;;;30.85;14.82;;;11.70;98.30;;;;;;5051714;28;20020;-71
2022/04/06 07:34:03;;;;;;;26.40;14.63;;;11.70;98.10;;;;;;5050364;28;20064;-71
2022/04/06 07:36:28;;;;;;;25.80;15.77;;;11.70;98.10;;;;;;5050387;28;20048;-71
2022/04/06 07:38:54;;;;;;;23.92;14.18;;;11.70;97.90;;;;;;5051244;28;20090;-71
2022/04/06 07:41:19;;;;;;;23.73;12.45;;;11.80;97.80;;;;;;5051234;28;20455;-72
2022/04/06 07:43:45;;;;;;;20.88;13.40;;;11.80;97.40;;;;;;5050291;28;20025;-71
2022/04/06 07:46:11;;;;;;;19.52;12.65;;;11.70;97.30;;;;;;5051149;28;20033;-71
2022/04/06 07:48:39;;;;;;;21.08;12.27;;;11.80;97.30;;;;;;5051274;28;20103;-72
2022/04/06 07:51:05;;;;;;;23.05;12.85;;;11.70;97.10;;;;;;5043363;28;20040;-72
2022/04/06 07:53:31;;;;;;;19.13;11.80;;;11.80;97.10;;;;;;5049235;28;20063;-71
2022/04/06 07:55:56;;;;;;;22.65;12.30;;;11.80;97.10;;;;;;5049946;28;20056;-70
2022/04/06 07:58:23;;;;;;;20.58;10.82;;;11.90;96.90;;;;;;5051322;28;20028;-72
2022/04/06 08:00:49;;;;;;;21.90;11.20;;;11.90;96.60;;;;;;5049594;28;20036;-72
2022/04/06 08:03:15;;;;;;;23.15;11.00;;;11.90;96.70;;;;;;5050530;28;20089;-72
2022/04/06 08:05:40;;;;;;;21.10;10.52;;;11.90;96.50;;;;;;5050589;28;20144;-70
2022/04/06 08:08:07;;;;;;;26.73;10.02;;;11.90;96.40;;;;;;5050620;28;20044;-71
2022/04/06 08:10:41;;;;;;;18.55;9.38;;;12.00;96.30;;;;;;5051078;28;20511;-73
2022/04/06 08:13:07;;;;;;;16.10;8.63;;;12.00;96.20;;;;;;5049546;28;20043;-71
2022/04/06 08:15:33;;;;;;;23.33;9.18;;;12.00;95.80;;;;;;5050582;28;20025;-72
2022/04/06 08:17:58;;;;;;;18.83;9.15;;;12.00;95.80;;;;;;5049490;28;20033;-72
2022/04/06 08:20:24;;;;;;;14.90;8.38;;;11.90;95.80;;;;;;5050659;28;20112;-72
2022/04/06 08:22:50;;;;;;;16.08;8.68;;;12.00;95.90;;;;;;5050799;28;20060;-69
2022/04/06 08:25:17;;;;;;;17.20;8.45;;;12.00;95.50;;;;;;5051051;28;20036;-70
2022/04/06 08:27:43;;;;;;;17.80;8.40;;;12.00;95.50;;;;;;5050337;28;20021;-70
2022/04/06 08:30:10;;;;;;;15.35;8.90;;;12.00;95.80;;;;;;5050682;28;20037;-71
2022/04/06 08:32:36;;;;;;;20.10;8.43;;;12.00;95.40;;;;;;5050655;28;20052;-70
2022/04/06 08:35:02;;;;;;;16.63;8.10;;;12.00;95.20;;;;;;5050689;28;20029;-70
2022/04/06 08:37:31;;;;;;;13.60;7.93;;;12.00;95.10;;;;;;5050663;28;20021;-70
2022/04/06 08:39:57;;;;;;;23.20;7.57;;;12.10;94.80;;;;;;5049362;28;20060;-73
2022/04/06 08:42:25;;;;;;;19.85;7.80;;;12.00;94.40;;;;;;5050245;28;20040;-76
2022/04/06 08:44:51;;;;;;;;;;;12.00;94.40;;;;;;5050893;28;20037;-70
2022/04/06 08:47:17;;;;;;;13.75;6.63;;;12.00;94.20;;;;;;5050095;28;19920;-70
2022/04/06 08:49:45;;;;;;;17.92;6.57;;;11.90;94.00;;;;;;5050153;28;20359;-71
2022/04/06 08:52:11;;;;;;;12.98;6.35;;;11.90;94.20;;;;;;5050800;28;20388;-71
2022/04/06 08:54:38;;;;;;;14.48;6.43;;;11.90;94.00;;;;;;5051217;28;20037;-69
2022/04/06 08:57:05;;;;;;;12.60;6.90;;;11.90;94.40;;;;;;5054206;28;20492;-70
2022/04/06 08:59:31;;;;;;;15.55;6.40;;;11.90;94.00;;;;;;5053980;28;20041;-70
2022/04/06 09:01:57;;;;;;;10.98;5.55;;;11.90;94.10;;;;;;5053956;28;20060;-73
2022/04/06 09:04:24;;;;;;;11.60;6.38;;;11.90;94.00;;;;;;5054438;28;20068;-70
2022/04/06 09:06:50;;;;;;;7.63;5.13;;;11.90;93.90;;;;;;5052785;28;20052;-70
2022/04/06 09:09:24;;;;;;;14.88;5.95;;;11.90;93.60;;;;;;5053955;28;20025;-69
2022/04/06 09:11:50;;;;;;;14.63;5.40;;;12.00;93.90;;;;;;5052627;28;20119;-70
2022/04/06 09:14:16;;;;;;;13.07;6.38;;;12.10;93.70;;;;;;5053787;28;20112;-70
2022/04/06 09:16:42;;;;;;;11.05;5.50;;;12.10;93.40;;;;;;5053344;28;20020;-69
2022/04/06 09:19:10;;;;;;;12.80;5.85;;;12.10;93.30;;;;;;5054202;28;20028;-74
2022/04/06 09:21:39;;;;;;;;;;;12.00;93.40;;;;;;5054529;28;20048;-70
2022/04/06 09:24:12;;;;;;;10.85;5.93;;;12.10;93.50;;;;;;5053676;28;19909;-71
2022/04/06 09:26:38;;;;;;;11.45;5.50;;;12.10;93.60;;;;;;5053679;28;20056;-70
2022/04/06 09:29:03;;;;;;;11.25;5.22;;;12.00;93.60;;;;;;5053415;28;20032;-71
2022/04/06 09:31:37;;;;;;;13.40;5.40;;;12.10;93.70;;;;;;5053938;28;20036;-69
2022/04/06 09:34:03;;;;;;;13.45;5.20;;;12.20;93.80;;;;;;5053400;28;20116;-71
2022/04/06 09:36:34;;;;;;;8.80;4.95;;;12.20;93.90;;;;;;5053658;28;20033;-71
2022/04/06 09:39:00;;;;;;;8.57;4.70;;;12.10;93.80;;;;;;5053560;28;20170;-71
2022/04/06 09:41:26;;;;;;;17.90;5.28;;;12.00;93.80;;;;;;5053263;28;20112;-73
2022/04/06 09:43:53;;;;;;;19.40;5.55;;;12.00;93.70;;;;;;5052016;28;20021;-69
2022/04/06 09:49:12;;;;;;;17.52;4.60;;;12.10;93.90;;;;;;5053122;28;20434;-73
2022/04/06 09:51:39;;;;;;;14.05;5.05;;;12.00;93.80;;;;;;5053148;28;20025;-70
2022/04/06 09:54:07;;;;;;;16.88;4.55;;;12.00;93.90;;;;;;5053216;28;20033;-69
2022/04/06 09:56:33;;;;;;;10.55;5.65;;;11.90;93.90;;;;;;5053087;28;20040;-69
2022/04/06 09:59:01;;;;;;;16.38;5.80;;;11.80;93.90;;;;;;5053457;28;20465;-71
2022/04/06 10:01:32;;;;;;;12.40;6.05;;;11.80;94.10;;;;;;5053668;28;20025;-71
2022/04/06 10:04:03;;;;;;;11.63;5.47;;;11.90;94.20;;;;;;5053208;28;20090;-71
2022/04/06 10:06:32;;;;;;;13.95;5.50;;;11.90;94.20;;;;;;5051701;28;20021;-70
2022/04/06 10:09:00;;;;;;;9.48;4.75;;;11.80;94.20;;;;;;5052935;28;20029;-71
2022/04/06 10:11:25;;;;;;;;;;;11.90;94.10;;;;;;5053285;28;20095;-71
2022/04/06 10:13:52;;;;;;;15.02;5.63;;;11.90;94.10;;;;;;5052771;28;20358;-69
2022/04/06 10:16:20;;;;;;;15.93;4.95;;;11.90;94.20;;;;;;5053124;28;20104;-71
2022/04/06 10:18:46;;;;;;;;;;;12.00;94.00;;;;;;5051847;28;20048;-70
2022/04/06 10:21:38;;;;;;;11.98;5.10;;;12.00;93.80;;;;;;5051230;28;19908;-70
2022/04/06 10:24:19;;;;;;;9.43;3.97;;;12.00;93.70;;;;;;5046597;28;20029;-69
2022/04/06 10:27:09;;;;;;;9.32;4.78;;;12.10;93.20;;;;;;5052382;28;20029;-71
2022/04/06 10:30:03;;;;;;;9.85;3.95;;;12.00;93.00;;;;;;5052232;28;20099;-72
2022/04/06 10:32:42;;;;;;;8.27;4.10;;;12.00;92.80;;;;;;5051324;28;20041;-72
2022/04/06 10:35:23;;;;;;;13.88;4.85;;;12.00;93.00;;;;;;5051004;28;20151;-73
2022/04/06 10:37:53;;;;;;;12.55;4.45;;;11.90;92.90;;;;;;5051265;28;20025;-79
2022/04/06 10:40:19;;;;;;;9.35;3.95;;;11.90;92.90;;;;;;5053064;28;20017;-73
2022/04/06 10:42:46;;;;;;;9.10;4.65;;;12.00;93.10;;;;;;5050931;28;20029;-73
2022/04/06 10:45:29;;;;;;;11.27;4.57;;;12.00;93.10;;;;;;5052052;28;20033;-72
2022/04/06 10:48:15;;;;;;;11.30;4.40;;;12.00;93.20;;;;;;5052019;28;20045;-71
2022/04/06 10:50:45;;;;;;;12.40;4.90;;;11.90;93.20;;;;;;5051762;28;20449;-75
2022/04/06 10:53:31;;;;;;;10.55;3.95;;;11.80;93.30;;;;;;5051728;28;20036;-72
2022/04/06 10:56:16;;;;;;;10.82;4.97;;;11.90;93.60;;;;;;5051531;28;20546;-75
2022/04/06 10:59:09;;;;;;;9.30;4.03;;;12.00;93.60;;;;;;5051432;28;20056;-72
2022/04/06 11:01:35;;;;;;;14.15;4.25;;;12.00;93.30;;;;;;5050067;28;20044;-75
2022/04/06 11:04:17;;;;;;;8.95;4.40;;;11.90;93.30;;;;;;5052245;28;20029;-74
2022/04/06 11:06:48;;;;;;;9.13;4.05;;;11.90;93.30;;;;;;5051877;28;20048;-70
2022/04/06 11:12:18;;;;;;;7.93;4.90;;;12.10;93.50;;;;;;5052245;28;20160;-84
2022/04/06 11:14:45;;;;;;;14.25;4.63;;;12.10;93.90;;;;;;5051522;28;20066;-71
2022/04/06 11:17:34;;;;;;;11.05;5.25;;;12.20;93.40;;;;;;5051419;28;20040;-71
2022/04/06 11:20:08;;;;;;;9.88;4.05;;;12.40;93.40;;;;;;5051425;28;20055;-72
2022/04/06 11:22:39;;;;;;;11.60;4.50;;;12.30;93.00;;;;;;5051782;28;20708;-69
2022/04/06 11:25:08;;;;;;;13.55;4.80;;;12.40;93.10;;;;;;5050325;28;20044;-69
2022/04/06 11:27:35;;;;;;;7.80;4.45;;;12.40;93.10;;;;;;5051323;28;20053;-71
2022/04/06 11:30:13;;;;;;;12.65;6.22;;;12.50;93.10;;;;;;5051116;28;20045;-71
2022/04/06 11:32:43;;;;;;;12.38;6.13;;;12.50;93.00;;;;;;5050173;28;20460;-70
2022/04/06 11:35:11;;;;;;;12.00;5.97;;;12.30;92.70;;;;;;5051385;28;20164;-71
2022/04/06 11:37:49;;;;;;;13.25;5.90;;;12.40;93.00;;;;;;5051669;28;20021;-71
2022/04/06 11:40:21;;;;;;;15.27;5.88;;;12.60;92.90;;;;;;5051153;28;20618;-72
2022/04/06 11:42:51;;;;;;;11.10;6.07;;;12.70;92.90;;;;;;5051066;28;20477;-72
2022/04/06 11:45:31;;;;;;;12.07;5.55;;;12.80;92.50;;;;;;5050819;28;20175;-71
2022/04/06 11:48:02;;;;;;;13.38;5.35;;;12.90;92.40;;;;;;5049291;28;20072;-71
2022/04/06 11:50:30;;;;;;;11.18;4.40;;;12.90;92.40;;;;;;5050653;28;20462;-73
2022/04/06 11:52:59;;;;;;;9.93;3.92;;;13.00;92.40;;;;;;5050777;28;20032;-71
2022/04/06 11:55:48;;;;;;;6.65;2.90;;;12.90;92.10;;;;;;5050991;28;20025;-72
2022/04/06 11:58:40;;;;;;;4.88;3.13;;;12.80;92.30;;;;;;5049433;28;20037;-71
2022/04/06 12:01:15;;;;;;;7.85;2.72;;;12.80;92.40;;;;;;5050363;28;20040;-71
2022/04/06 12:03:43;;;;;;;7.57;2.97;;;12.80;92.50;;;;;;5049697;28;20025;-73
2022/04/06 12:06:11;;;;;;;14.80;2.80;;;12.70;92.50;;;;;;5050912;28;20382;-72
2022/04/06 12:08:39;;;;;;;8.50;3.60;;;12.70;92.40;;;;;;5050901;28;20033;-71
2022/04/06 12:11:05;;;;;;;;;;;12.70;92.30;;;;;;5051078;28;20036;-72
2022/04/06 12:13:34;;;;;;;6.82;2.88;;;12.70;92.20;;;;;;5051158;28;19904;-71
2022/04/06 12:16:01;;;;;;;7.60;3.10;;;12.80;92.20;;;;;;5050523;28;20544;-72
2022/04/06 12:18:30;;;;;;;12.73;3.85;;;12.60;92.20;;;;;;5050100;28;20033;-73
2022/04/06 12:20:57;;;;;;;8.10;3.83;;;12.80;92.40;;;;;;5050163;28;20128;-71
2022/04/06 12:23:24;;;;;;;9.85;3.08;;;12.80;91.90;;;;;;5050589;28;20083;-71
2022/04/06 12:25:50;;;;;;;13.48;3.50;;;12.80;92.20;;;;;;5049738;28;20036;-71
2022/04/06 12:28:24;;;;;;;5.30;3.15;;;12.80;91.90;;;;;;5051072;28;20021;-71
2022/04/06 12:31:08;;;;;;;8.32;2.85;;;12.80;91.80;;;;;;5054690;28;20043;-71
2022/04/06 12:33:47;;;;;;;8.07;3.00;;;12.90;91.80;;;;;;5053521;28;20029;-70
2022/04/06 12:36:24;;;;;;;12.43;3.30;;;12.90;91.80;;;;;;5054550;28;20035;-72
2022/04/06 12:39:13;;;;;;;7.80;3.00;;;13.00;91.80;;;;;;5054598;28;20219;-71
2022/04/06 12:41:59;;;;;;;9.52;2.90;;;12.90;91.80;;;;;;5054511;28;20043;-69
2022/04/06 12:44:58;;;;;;;3.20;2.35;;;13.00;92.00;;;;;;5054435;28;20112;-70
2022/04/06 12:47:25;;;;;;;9.63;2.72;;;12.90;92.10;;;;;;5054233;28;20033;-70